sensor_id;sensor_type;location;lat;lon;timestamp;temperature;humidity
41904;DHT22;27586;51.124;4.182;2023-11-21T00:01:18;8.20;99.90
41904;DHT22;27586;51.124;4.182;2023-11-21T00:03:43;8.30;99.90
41904;DHT22;27586;51.124;4.182;2023-11-21T00:06:09;8.30;99.90
41904;DHT22;27586;51.124;4.182;2023-11-21T00:08:35;8.40;99.90
41904;DHT22;27586;51.124;4.182;2023-11-21T00:11:01;8.40;99.90
41904;DHT22;27586;51.124;4.182;2023-11-21T00:13:28;8.50;99.90
41904;DHT22;27586;51.124;4.182;2023-11-21T00:15:53;8.50;99.90
41904;DHT22;27586;51.124;4.182;2023-11-21T00:18:20;8.60;99.90
41904;DHT22;27586;51.124;4.182;2023-11-21T00:20:46;8.50;99.90
41904;DHT22;27586;51.124;4.182;2023-11-21T00:23:11;8.60;99.90
41904;DHT22;27586;51.124;4.182;2023-11-21T00:25:37;8.60;99.90
41904;DHT22;27586;51.124;4.182;2023-11-21T00:28:03;8.60;99.90
41904;DHT22;27586;51.124;4.182;2023-11-21T00:30:28;8.70;99.90
41904;DHT22;27586;51.124;4.182;2023-11-21T00:32:55;8.70;99.90
41904;DHT22;27586;51.124;4.182;2023-11-21T00:35:21;8.70;99.90
41904;DHT22;27586;51.124;4.182;2023-11-21T00:37:46;8.80;99.90
41904;DHT22;27586;51.124;4.182;2023-11-21T00:40:15;8.80;99.90
41904;DHT22;27586;51.124;4.182;2023-11-21T00:42:44;8.90;99.90
41904;DHT22;27586;51.124;4.182;2023-11-21T00:45:10;8.90;99.90
41904;DHT22;27586;51.124;4.182;2023-11-21T00:47:36;8.90;99.90
41904;DHT22;27586;51.124;4.182;2023-11-21T00:50:02;9.00;99.90
41904;DHT22;27586;51.124;4.182;2023-11-21T00:52:31;9.00;99.90
41904;DHT22;27586;51.124;4.182;2023-11-21T00:54:57;9.00;99.90
41904;DHT22;27586;51.124;4.182;2023-11-21T00:57:24;9.00;99.90
41904;DHT22;27586;51.124;4.182;2023-11-21T00:59:50;9.00;99.90
41904;DHT22;27586;51.124;4.182;2023-11-21T01:02:15;9.10;99.90
41904;DHT22;27586;51.124;4.182;2023-11-21T01:04:41;9.10;99.90
41904;DHT22;27586;51.124;4.182;2023-11-21T01:07:07;9.20;99.90
41904;DHT22;27586;51.124;4.182;2023-11-21T01:09:33;9.10;99.90
41904;DHT22;27586;51.124;4.182;2023-11-21T01:11:58;9.20;99.90
41904;DHT22;27586;51.124;4.182;2023-11-21T01:14:25;9.30;99.90
41904;DHT22;27586;51.124;4.182;2023-11-21T01:16:52;9.30;99.90
41904;DHT22;27586;51.124;4.182;2023-11-21T01:19:18;9.30;99.90
41904;DHT22;27586;51.124;4.182;2023-11-21T01:21:43;9.40;99.90
41904;DHT22;27586;51.124;4.182;2023-11-21T01:24:09;9.40;99.90
41904;DHT22;27586;51.124;4.182;2023-11-21T01:26:35;9.40;99.90
41904;DHT22;27586;51.124;4.182;2023-11-21T01:29:00;9.30;99.90
41904;DHT22;27586;51.124;4.182;2023-11-21T01:31:26;9.30;99.90
41904;DHT22;27586;51.124;4.182;2023-11-21T01:33:55;9.40;99.90
41904;DHT22;27586;51.124;4.182;2023-11-21T01:36:20;9.40;99.90
41904;DHT22;27586;51.124;4.182;2023-11-21T01:38:46;9.40;99.90
41904;DHT22;27586;51.124;4.182;2023-11-21T01:41:14;9.30;99.90
41904;DHT22;27586;51.124;4.182;2023-11-21T01:43:40;9.40;99.90
41904;DHT22;27586;51.124;4.182;2023-11-21T01:46:06;9.40;99.90
41904;DHT22;27586;51.124;4.182;2023-11-21T01:48:33;9.40;99.90
41904;DHT22;27586;51.124;4.182;2023-11-21T01:51:00;9.40;99.90
41904;DHT22;27586;51.124;4.182;2023-11-21T01:53:26;9.50;99.90
41904;DHT22;27586;51.124;4.182;2023-11-21T01:55:53;9.50;99.90
41904;DHT22;27586;51.124;4.182;2023-11-21T01:58:19;9.50;99.90
41904;DHT22;27586;51.124;4.182;2023-11-21T02:00:45;9.40;99.90
41904;DHT22;27586;51.124;4.182;2023-11-21T02:03:11;9.40;99.90
41904;DHT22;27586;51.124;4.182;2023-11-21T02:05:37;9.40;99.90
41904;DHT22;27586;51.124;4.182;2023-11-21T02:08:03;9.40;99.90
41904;DHT22;27586;51.124;4.182;2023-11-21T02:10:30;9.50;99.90
41904;DHT22;27586;51.124;4.182;2023-11-21T02:12:56;9.50;99.90
41904;DHT22;27586;51.124;4.182;2023-11-21T02:15:23;9.40;99.90
41904;DHT22;27586;51.124;4.182;2023-11-21T02:17:52;9.40;99.90
41904;DHT22;27586;51.124;4.182;2023-11-21T02:20:20;9.40;99.90
41904;DHT22;27586;51.124;4.182;2023-11-21T02:22:53;9.50;99.90
41904;DHT22;27586;51.124;4.182;2023-11-21T02:25:32;9.50;99.90
41904;DHT22;27586;51.124;4.182;2023-11-21T02:28:01;9.50;99.90
41904;DHT22;27586;51.124;4.182;2023-11-21T02:30:27;9.50;99.90
41904;DHT22;27586;51.124;4.182;2023-11-21T02:32:54;9.50;99.90
41904;DHT22;27586;51.124;4.182;2023-11-21T02:35:22;9.50;99.90
41904;DHT22;27586;51.124;4.182;2023-11-21T02:37:48;9.40;99.90
41904;DHT22;27586;51.124;4.182;2023-11-21T02:40:13;9.50;99.90
41904;DHT22;27586;51.124;4.182;2023-11-21T02:42:43;9.50;99.90
41904;DHT22;27586;51.124;4.182;2023-11-21T02:45:10;9.50;99.90
41904;DHT22;27586;51.124;4.182;2023-11-21T02:47:38;9.50;99.90
41904;DHT22;27586;51.124;4.182;2023-11-21T02:50:05;9.50;99.90
41904;DHT22;27586;51.124;4.182;2023-11-21T02:52:31;9.50;99.90
41904;DHT22;27586;51.124;4.182;2023-11-21T02:54:58;9.50;99.90
41904;DHT22;27586;51.124;4.182;2023-11-21T02:57:24;9.50;99.90
41904;DHT22;27586;51.124;4.182;2023-11-21T02:59:49;9.50;99.90
41904;DHT22;27586;51.124;4.182;2023-11-21T03:02:15;9.50;99.90
41904;DHT22;27586;51.124;4.182;2023-11-21T03:04:41;9.60;99.90
41904;DHT22;27586;51.124;4.182;2023-11-21T03:07:08;9.50;99.90
41904;DHT22;27586;51.124;4.182;2023-11-21T03:09:35;9.60;99.90
41904;DHT22;27586;51.124;4.182;2023-11-21T03:12:00;9.60;99.90
41904;DHT22;27586;51.124;4.182;2023-11-21T03:14:26;9.60;99.90
41904;DHT22;27586;51.124;4.182;2023-11-21T03:16:52;9.60;99.90
41904;DHT22;27586;51.124;4.182;2023-11-21T03:19:17;9.60;99.90
41904;DHT22;27586;51.124;4.182;2023-11-21T03:21:43;9.70;99.90
41904;DHT22;27586;51.124;4.182;2023-11-21T03:24:09;9.70;99.90
41904;DHT22;27586;51.124;4.182;2023-11-21T03:26:34;9.60;99.90
41904;DHT22;27586;51.124;4.182;2023-11-21T03:29:00;9.60;99.90
41904;DHT22;27586;51.124;4.182;2023-11-21T03:31:26;9.60;99.90
41904;DHT22;27586;51.124;4.182;2023-11-21T03:33:52;9.60;99.90
41904;DHT22;27586;51.124;4.182;2023-11-21T03:36:19;9.60;99.90
41904;DHT22;27586;51.124;4.182;2023-11-21T03:38:45;9.70;99.90
41904;DHT22;27586;51.124;4.182;2023-11-21T03:41:11;9.70;99.90
41904;DHT22;27586;51.124;4.182;2023-11-21T03:43:37;9.70;99.90
41904;DHT22;27586;51.124;4.182;2023-11-21T03:46:03;9.70;99.90
41904;DHT22;27586;51.124;4.182;2023-11-21T03:48:29;9.80;99.90
41904;DHT22;27586;51.124;4.182;2023-11-21T03:50:55;9.70;99.90
41904;DHT22;27586;51.124;4.182;2023-11-21T03:53:20;9.80;99.90
41904;DHT22;27586;51.124;4.182;2023-11-21T03:55:46;9.70;99.90
41904;DHT22;27586;51.124;4.182;2023-11-21T03:58:11;9.70;99.90
41904;DHT22;27586;51.124;4.182;2023-11-21T04:00:37;9.70;99.90
41904;DHT22;27586;51.124;4.182;2023-11-21T04:03:03;9.80;99.90
41904;DHT22;27586;51.124;4.182;2023-11-21T04:05:30;9.80;99.90
41904;DHT22;27586;51.124;4.182;2023-11-21T04:07:56;9.70;99.90
41904;DHT22;27586;51.124;4.182;2023-11-21T04:10:22;9.80;99.90
41904;DHT22;27586;51.124;4.182;2023-11-21T04:12:47;9.80;99.90
41904;DHT22;27586;51.124;4.182;2023-11-21T04:15:14;9.80;99.90
41904;DHT22;27586;51.124;4.182;2023-11-21T04:17:40;9.80;99.90
41904;DHT22;27586;51.124;4.182;2023-11-21T04:20:07;9.80;99.90
41904;DHT22;27586;51.124;4.182;2023-11-21T04:22:37;9.80;99.90
41904;DHT22;27586;51.124;4.182;2023-11-21T04:25:08;9.80;99.90
41904;DHT22;27586;51.124;4.182;2023-11-21T04:27:33;9.90;99.90
41904;DHT22;27586;51.124;4.182;2023-11-21T04:30:00;9.90;99.90
41904;DHT22;27586;51.124;4.182;2023-11-21T04:32:25;9.90;99.90
41904;DHT22;27586;51.124;4.182;2023-11-21T04:34:51;9.90;99.90
41904;DHT22;27586;51.124;4.182;2023-11-21T04:37:16;9.90;99.90
41904;DHT22;27586;51.124;4.182;2023-11-21T04:39:42;10.00;99.90
41904;DHT22;27586;51.124;4.182;2023-11-21T04:42:08;10.00;99.90
41904;DHT22;27586;51.124;4.182;2023-11-21T04:44:33;10.00;99.90
41904;DHT22;27586;51.124;4.182;2023-11-21T04:46:59;10.00;99.90
41904;DHT22;27586;51.124;4.182;2023-11-21T04:49:24;10.00;99.90
41904;DHT22;27586;51.124;4.182;2023-11-21T04:51:50;10.00;99.90
41904;DHT22;27586;51.124;4.182;2023-11-21T04:54:16;10.00;99.90
41904;DHT22;27586;51.124;4.182;2023-11-21T04:56:42;9.90;99.90
41904;DHT22;27586;51.124;4.182;2023-11-21T04:59:08;9.90;99.90
41904;DHT22;27586;51.124;4.182;2023-11-21T05:01:33;9.90;99.90
41904;DHT22;27586;51.124;4.182;2023-11-21T05:03:59;9.90;99.90
41904;DHT22;27586;51.124;4.182;2023-11-21T05:06:24;10.00;99.90
41904;DHT22;27586;51.124;4.182;2023-11-21T05:08:50;10.00;99.90
41904;DHT22;27586;51.124;4.182;2023-11-21T05:11:26;10.00;99.90
41904;DHT22;27586;51.124;4.182;2023-11-21T05:13:51;10.10;99.90
41904;DHT22;27586;51.124;4.182;2023-11-21T05:16:17;10.00;99.90
41904;DHT22;27586;51.124;4.182;2023-11-21T05:18:44;10.00;99.90
41904;DHT22;27586;51.124;4.182;2023-11-21T05:21:10;10.00;99.90
41904;DHT22;27586;51.124;4.182;2023-11-21T05:23:35;10.00;99.90
41904;DHT22;27586;51.124;4.182;2023-11-21T05:26:03;10.10;99.90
41904;DHT22;27586;51.124;4.182;2023-11-21T05:28:29;10.10;99.90
41904;DHT22;27586;51.124;4.182;2023-11-21T05:30:54;10.10;99.90
41904;DHT22;27586;51.124;4.182;2023-11-21T05:33:20;10.10;99.90
41904;DHT22;27586;51.124;4.182;2023-11-21T05:35:46;10.10;99.90
41904;DHT22;27586;51.124;4.182;2023-11-21T05:38:14;10.10;99.90
41904;DHT22;27586;51.124;4.182;2023-11-21T05:40:39;10.10;99.90
41904;DHT22;27586;51.124;4.182;2023-11-21T05:43:06;10.10;99.90
41904;DHT22;27586;51.124;4.182;2023-11-21T05:45:32;10.10;99.90
41904;DHT22;27586;51.124;4.182;2023-11-21T05:47:58;10.10;99.90
41904;DHT22;27586;51.124;4.182;2023-11-21T05:50:24;10.10;99.90
41904;DHT22;27586;51.124;4.182;2023-11-21T05:52:49;10.10;99.90
41904;DHT22;27586;51.124;4.182;2023-11-21T05:55:16;10.20;99.90
41904;DHT22;27586;51.124;4.182;2023-11-21T05:57:43;10.20;99.90
41904;DHT22;27586;51.124;4.182;2023-11-21T06:00:13;10.20;99.90
41904;DHT22;27586;51.124;4.182;2023-11-21T06:02:52;10.10;99.90
41904;DHT22;27586;51.124;4.182;2023-11-21T06:05:19;10.10;99.90
41904;DHT22;27586;51.124;4.182;2023-11-21T06:07:46;10.10;99.90
41904;DHT22;27586;51.124;4.182;2023-11-21T06:10:12;10.00;99.90
41904;DHT22;27586;51.124;4.182;2023-11-21T06:12:40;10.00;99.90
41904;DHT22;27586;51.124;4.182;2023-11-21T06:15:08;10.00;99.90
41904;DHT22;27586;51.124;4.182;2023-11-21T06:17:35;10.10;99.90
41904;DHT22;27586;51.124;4.182;2023-11-21T06:20:07;10.10;99.90
41904;DHT22;27586;51.124;4.182;2023-11-21T06:22:40;10.10;99.90
41904;DHT22;27586;51.124;4.182;2023-11-21T06:25:06;10.20;99.90
41904;DHT22;27586;51.124;4.182;2023-11-21T06:27:36;10.20;99.90
41904;DHT22;27586;51.124;4.182;2023-11-21T06:30:02;10.20;99.90
41904;DHT22;27586;51.124;4.182;2023-11-21T06:32:28;10.20;99.90
41904;DHT22;27586;51.124;4.182;2023-11-21T06:34:55;10.20;99.90
41904;DHT22;27586;51.124;4.182;2023-11-21T06:37:21;10.20;99.90
41904;DHT22;27586;51.124;4.182;2023-11-21T06:39:49;10.20;99.90
41904;DHT22;27586;51.124;4.182;2023-11-21T06:42:17;10.20;99.90
41904;DHT22;27586;51.124;4.182;2023-11-21T06:44:45;10.20;99.90
41904;DHT22;27586;51.124;4.182;2023-11-21T06:47:10;10.30;99.90
41904;DHT22;27586;51.124;4.182;2023-11-21T06:49:36;10.30;99.90
41904;DHT22;27586;51.124;4.182;2023-11-21T06:52:04;10.30;99.90
41904;DHT22;27586;51.124;4.182;2023-11-21T06:54:31;10.30;99.90
41904;DHT22;27586;51.124;4.182;2023-11-21T06:56:57;10.30;99.90
41904;DHT22;27586;51.124;4.182;2023-11-21T06:59:23;10.30;99.90
41904;DHT22;27586;51.124;4.182;2023-11-21T07:01:49;10.30;99.90
41904;DHT22;27586;51.124;4.182;2023-11-21T07:04:15;10.40;99.90
41904;DHT22;27586;51.124;4.182;2023-11-21T07:06:41;10.40;99.90
41904;DHT22;27586;51.124;4.182;2023-11-21T07:09:06;10.40;99.90
41904;DHT22;27586;51.124;4.182;2023-11-21T07:11:34;10.40;99.90
41904;DHT22;27586;51.124;4.182;2023-11-21T07:14:00;10.40;99.90
41904;DHT22;27586;51.124;4.182;2023-11-21T07:16:32;10.40;99.90
41904;DHT22;27586;51.124;4.182;2023-11-21T07:19:00;10.50;99.90
41904;DHT22;27586;51.124;4.182;2023-11-21T07:21:25;10.50;99.90
41904;DHT22;27586;51.124;4.182;2023-11-21T07:23:51;10.50;99.90
41904;DHT22;27586;51.124;4.182;2023-11-21T07:26:17;10.50;99.90
41904;DHT22;27586;51.124;4.182;2023-11-21T07:28:42;10.50;99.90
41904;DHT22;27586;51.124;4.182;2023-11-21T07:31:08;10.50;99.90
41904;DHT22;27586;51.124;4.182;2023-11-21T07:33:34;10.60;99.90
41904;DHT22;27586;51.124;4.182;2023-11-21T07:35:59;10.60;99.90
41904;DHT22;27586;51.124;4.182;2023-11-21T07:38:26;10.60;99.90
41904;DHT22;27586;51.124;4.182;2023-11-21T07:40:51;10.60;99.90
41904;DHT22;27586;51.124;4.182;2023-11-21T07:43:17;10.70;99.90
41904;DHT22;27586;51.124;4.182;2023-11-21T07:45:45;10.70;99.90
41904;DHT22;27586;51.124;4.182;2023-11-21T07:48:10;10.70;99.90
41904;DHT22;27586;51.124;4.182;2023-11-21T07:50:36;10.70;99.90
41904;DHT22;27586;51.124;4.182;2023-11-21T07:53:01;10.70;99.90
41904;DHT22;27586;51.124;4.182;2023-11-21T07:55:30;10.70;99.90
41904;DHT22;27586;51.124;4.182;2023-11-21T07:57:57;10.70;99.90
41904;DHT22;27586;51.124;4.182;2023-11-21T08:00:23;10.70;99.90
41904;DHT22;27586;51.124;4.182;2023-11-21T08:02:49;10.70;99.90
41904;DHT22;27586;51.124;4.182;2023-11-21T08:05:16;10.70;99.90
41904;DHT22;27586;51.124;4.182;2023-11-21T08:07:41;10.70;99.90
41904;DHT22;27586;51.124;4.182;2023-11-21T08:10:08;10.70;99.90
41904;DHT22;27586;51.124;4.182;2023-11-21T08:12:35;10.70;99.90
41904;DHT22;27586;51.124;4.182;2023-11-21T08:15:01;10.70;99.90
41904;DHT22;27586;51.124;4.182;2023-11-21T08:17:28;10.80;99.90
41904;DHT22;27586;51.124;4.182;2023-11-21T08:19:54;10.80;99.90
41904;DHT22;27586;51.124;4.182;2023-11-21T08:22:20;10.80;99.90
41904;DHT22;27586;51.124;4.182;2023-11-21T08:24:46;10.80;99.90
41904;DHT22;27586;51.124;4.182;2023-11-21T08:27:12;10.80;99.90
41904;DHT22;27586;51.124;4.182;2023-11-21T08:29:41;10.80;99.90
41904;DHT22;27586;51.124;4.182;2023-11-21T08:32:07;10.90;99.90
41904;DHT22;27586;51.124;4.182;2023-11-21T08:34:33;10.90;99.90
41904;DHT22;27586;51.124;4.182;2023-11-21T08:36:58;10.90;99.90
41904;DHT22;27586;51.124;4.182;2023-11-21T08:39:24;10.90;99.90
41904;DHT22;27586;51.124;4.182;2023-11-21T08:41:52;10.90;99.90
41904;DHT22;27586;51.124;4.182;2023-11-21T08:44:17;10.90;99.90
41904;DHT22;27586;51.124;4.182;2023-11-21T08:46:47;10.90;99.90
41904;DHT22;27586;51.124;4.182;2023-11-21T08:49:12;10.90;99.90
41904;DHT22;27586;51.124;4.182;2023-11-21T08:51:39;10.90;99.90
41904;DHT22;27586;51.124;4.182;2023-11-21T08:54:05;11.00;99.90
41904;DHT22;27586;51.124;4.182;2023-11-21T08:56:34;11.00;99.90
41904;DHT22;27586;51.124;4.182;2023-11-21T08:58:59;11.10;99.90
41904;DHT22;27586;51.124;4.182;2023-11-21T09:01:29;11.10;99.90
41904;DHT22;27586;51.124;4.182;2023-11-21T09:03:57;11.10;99.90
41904;DHT22;27586;51.124;4.182;2023-11-21T09:06:23;11.00;99.90
41904;DHT22;27586;51.124;4.182;2023-11-21T09:08:49;11.00;99.90
41904;DHT22;27586;51.124;4.182;2023-11-21T09:11:15;11.00;99.90
41904;DHT22;27586;51.124;4.182;2023-11-21T09:13:41;11.00;99.90
41904;DHT22;27586;51.124;4.182;2023-11-21T09:16:06;11.10;99.90
41904;DHT22;27586;51.124;4.182;2023-11-21T09:18:32;11.10;99.90
41904;DHT22;27586;51.124;4.182;2023-11-21T09:20:58;11.00;99.90
41904;DHT22;27586;51.124;4.182;2023-11-21T09:23:24;11.00;99.90
41904;DHT22;27586;51.124;4.182;2023-11-21T09:25:50;11.10;99.90
41904;DHT22;27586;51.124;4.182;2023-11-21T09:28:17;11.10;99.90
41904;DHT22;27586;51.124;4.182;2023-11-21T09:30:43;11.10;99.90
41904;DHT22;27586;51.124;4.182;2023-11-21T09:33:09;11.10;99.90
41904;DHT22;27586;51.124;4.182;2023-11-21T09:35:37;11.10;99.90
41904;DHT22;27586;51.124;4.182;2023-11-21T09:38:04;11.20;99.90
41904;DHT22;27586;51.124;4.182;2023-11-21T09:40:36;11.30;99.90
41904;DHT22;27586;51.124;4.182;2023-11-21T09:43:06;11.30;99.90
41904;DHT22;27586;51.124;4.182;2023-11-21T09:45:35;11.30;99.90
41904;DHT22;27586;51.124;4.182;2023-11-21T09:48:01;11.20;99.90
41904;DHT22;27586;51.124;4.182;2023-11-21T09:50:28;11.20;99.90
41904;DHT22;27586;51.124;4.182;2023-11-21T09:55:30;11.20;99.90
41904;DHT22;27586;51.124;4.182;2023-11-21T09:58:02;11.20;99.90
41904;DHT22;27586;51.124;4.182;2023-11-21T10:00:30;11.30;99.90
41904;DHT22;27586;51.124;4.182;2023-11-21T10:02:58;11.30;99.90
41904;DHT22;27586;51.124;4.182;2023-11-21T10:05:25;11.40;99.90
41904;DHT22;27586;51.124;4.182;2023-11-21T10:07:50;11.60;99.90
41904;DHT22;27586;51.124;4.182;2023-11-21T10:10:18;11.60;99.90
41904;DHT22;27586;51.124;4.182;2023-11-21T10:12:49;11.50;99.90
41904;DHT22;27586;51.124;4.182;2023-11-21T10:15:21;11.70;99.90
41904;DHT22;27586;51.124;4.182;2023-11-21T10:17:49;11.70;99.90
41904;DHT22;27586;51.124;4.182;2023-11-21T10:20:15;11.70;99.90
41904;DHT22;27586;51.124;4.182;2023-11-21T10:22:42;11.70;99.90
41904;DHT22;27586;51.124;4.182;2023-11-21T10:25:09;11.80;99.90
41904;DHT22;27586;51.124;4.182;2023-11-21T10:27:36;11.90;99.90
41904;DHT22;27586;51.124;4.182;2023-11-21T10:30:03;12.00;99.90
41904;DHT22;27586;51.124;4.182;2023-11-21T10:32:29;12.00;99.90
41904;DHT22;27586;51.124;4.182;2023-11-21T10:34:59;11.90;99.90
41904;DHT22;27586;51.124;4.182;2023-11-21T10:37:38;12.10;99.90
41904;DHT22;27586;51.124;4.182;2023-11-21T10:40:06;12.00;99.90
41904;DHT22;27586;51.124;4.182;2023-11-21T10:42:33;11.90;99.90
41904;DHT22;27586;51.124;4.182;2023-11-21T10:44:58;11.90;99.90
41904;DHT22;27586;51.124;4.182;2023-11-21T10:47:25;12.00;99.90
41904;DHT22;27586;51.124;4.182;2023-11-21T10:49:51;12.10;99.90
41904;DHT22;27586;51.124;4.182;2023-11-21T10:52:19;12.10;99.90
41904;DHT22;27586;51.124;4.182;2023-11-21T10:54:46;11.90;99.90
41904;DHT22;27586;51.124;4.182;2023-11-21T10:57:17;12.00;99.90
41904;DHT22;27586;51.124;4.182;2023-11-21T10:59:46;11.90;99.90
41904;DHT22;27586;51.124;4.182;2023-11-21T11:02:23;11.90;99.90
41904;DHT22;27586;51.124;4.182;2023-11-21T11:04:52;11.90;99.90
41904;DHT22;27586;51.124;4.182;2023-11-21T11:07:17;11.80;99.90
41904;DHT22;27586;51.124;4.182;2023-11-21T11:09:45;11.70;99.90
41904;DHT22;27586;51.124;4.182;2023-11-21T11:12:13;11.50;99.90
41904;DHT22;27586;51.124;4.182;2023-11-21T11:14:41;11.50;99.90
41904;DHT22;27586;51.124;4.182;2023-11-21T11:17:09;11.50;99.90
41904;DHT22;27586;51.124;4.182;2023-11-21T11:19:36;11.50;99.90
41904;DHT22;27586;51.124;4.182;2023-11-21T11:22:41;11.50;99.90
41904;DHT22;27586;51.124;4.182;2023-11-21T11:33:43;11.30;99.90
41904;DHT22;27586;51.124;4.182;2023-11-21T11:36:16;11.20;99.90
41904;DHT22;27586;51.124;4.182;2023-11-21T11:38:45;11.20;99.90
41904;DHT22;27586;51.124;4.182;2023-11-21T11:41:11;11.30;99.90
41904;DHT22;27586;51.124;4.182;2023-11-21T11:43:37;11.20;99.90
41904;DHT22;27586;51.124;4.182;2023-11-21T11:46:10;11.20;99.90
41904;DHT22;27586;51.124;4.182;2023-11-21T11:48:39;11.20;99.90
41904;DHT22;27586;51.124;4.182;2023-11-21T11:51:12;11.30;99.90
41904;DHT22;27586;51.124;4.182;2023-11-21T11:53:47;11.40;99.90
41904;DHT22;27586;51.124;4.182;2023-11-21T11:56:29;11.40;99.90
41904;DHT22;27586;51.124;4.182;2023-11-21T11:58:58;11.40;99.90
41904;DHT22;27586;51.124;4.182;2023-11-21T12:01:26;11.40;99.90
41904;DHT22;27586;51.124;4.182;2023-11-21T12:06:36;11.50;99.90
41904;DHT22;27586;51.124;4.182;2023-11-21T12:09:02;11.40;99.90
41904;DHT22;27586;51.124;4.182;2023-11-21T12:11:31;11.50;99.90
41904;DHT22;27586;51.124;4.182;2023-11-21T12:13:58;11.50;99.90
41904;DHT22;27586;51.124;4.182;2023-11-21T12:16:25;11.50;99.90
41904;DHT22;27586;51.124;4.182;2023-11-21T12:18:53;11.40;99.90
41904;DHT22;27586;51.124;4.182;2023-11-21T12:21:20;11.50;99.90
41904;DHT22;27586;51.124;4.182;2023-11-21T12:23:46;11.50;99.90
41904;DHT22;27586;51.124;4.182;2023-11-21T12:26:14;11.40;99.90
41904;DHT22;27586;51.124;4.182;2023-11-21T12:28:40;11.30;99.90
41904;DHT22;27586;51.124;4.182;2023-11-21T12:31:06;11.20;99.90
41904;DHT22;27586;51.124;4.182;2023-11-21T12:33:33;11.10;99.90
41904;DHT22;27586;51.124;4.182;2023-11-21T12:35:58;11.10;99.90
41904;DHT22;27586;51.124;4.182;2023-11-21T12:38:24;11.20;99.90
41904;DHT22;27586;51.124;4.182;2023-11-21T12:40:50;11.20;99.90
41904;DHT22;27586;51.124;4.182;2023-11-21T12:43:17;11.20;99.90
41904;DHT22;27586;51.124;4.182;2023-11-21T12:45:43;11.10;99.90
41904;DHT22;27586;51.124;4.182;2023-11-21T12:48:09;11.10;99.90
41904;DHT22;27586;51.124;4.182;2023-11-21T12:50:37;11.10;99.90
41904;DHT22;27586;51.124;4.182;2023-11-21T12:53:05;11.20;99.90
41904;DHT22;27586;51.124;4.182;2023-11-21T12:55:34;11.20;99.90
41904;DHT22;27586;51.124;4.182;2023-11-21T12:58:04;11.20;99.90
41904;DHT22;27586;51.124;4.182;2023-11-21T13:00:44;11.20;99.90
41904;DHT22;27586;51.124;4.182;2023-11-21T13:03:12;11.20;99.90
41904;DHT22;27586;51.124;4.182;2023-11-21T13:05:41;11.10;99.90
41904;DHT22;27586;51.124;4.182;2023-11-21T13:08:11;11.10;99.90
41904;DHT22;27586;51.124;4.182;2023-11-21T13:10:43;11.10;99.90
41904;DHT22;27586;51.124;4.182;2023-11-21T13:13:12;11.20;99.90
41904;DHT22;27586;51.124;4.182;2023-11-21T13:18:15;11.30;99.90
41904;DHT22;27586;51.124;4.182;2023-11-21T13:20:45;11.20;99.90
41904;DHT22;27586;51.124;4.182;2023-11-21T13:23:12;11.20;99.90
41904;DHT22;27586;51.124;4.182;2023-11-21T13:25:38;11.30;99.90
41904;DHT22;27586;51.124;4.182;2023-11-21T13:28:06;11.20;99.90
41904;DHT22;27586;51.124;4.182;2023-11-21T13:30:32;11.30;99.90
41904;DHT22;27586;51.124;4.182;2023-11-21T13:33:02;11.20;99.90
41904;DHT22;27586;51.124;4.182;2023-11-21T13:35:30;11.20;99.90
41904;DHT22;27586;51.124;4.182;2023-11-21T13:38:13;11.30;99.90
41904;DHT22;27586;51.124;4.182;2023-11-21T13:40:42;11.20;99.90
41904;DHT22;27586;51.124;4.182;2023-11-21T13:43:13;11.10;99.90
41904;DHT22;27586;51.124;4.182;2023-11-21T13:45:43;11.00;99.90
41904;DHT22;27586;51.124;4.182;2023-11-21T13:48:10;11.00;99.90
41904;DHT22;27586;51.124;4.182;2023-11-21T13:50:39;11.00;99.90
41904;DHT22;27586;51.124;4.182;2023-11-21T13:53:14;11.00;99.90
41904;DHT22;27586;51.124;4.182;2023-11-21T13:55:49;11.00;99.90
41904;DHT22;27586;51.124;4.182;2023-11-21T13:58:16;11.10;99.90
41904;DHT22;27586;51.124;4.182;2023-11-21T14:00:46;11.00;99.90
41904;DHT22;27586;51.124;4.182;2023-11-21T14:03:12;11.00;99.90
41904;DHT22;27586;51.124;4.182;2023-11-21T14:05:46;11.00;99.90
41904;DHT22;27586;51.124;4.182;2023-11-21T14:08:13;10.90;99.90
41904;DHT22;27586;51.124;4.182;2023-11-21T14:10:43;10.90;99.90
41904;DHT22;27586;51.124;4.182;2023-11-21T14:13:10;10.90;99.90
41904;DHT22;27586;51.124;4.182;2023-11-21T14:15:36;10.90;99.90
41904;DHT22;27586;51.124;4.182;2023-11-21T14:18:07;10.90;99.90
41904;DHT22;27586;51.124;4.182;2023-11-21T14:20:39;10.90;99.90
41904;DHT22;27586;51.124;4.182;2023-11-21T14:23:06;10.90;99.90
41904;DHT22;27586;51.124;4.182;2023-11-21T14:25:35;10.90;99.90
41904;DHT22;27586;51.124;4.182;2023-11-21T14:28:03;10.90;99.90
41904;DHT22;27586;51.124;4.182;2023-11-21T14:30:29;10.90;99.90
41904;DHT22;27586;51.124;4.182;2023-11-21T14:32:58;11.00;99.90
41904;DHT22;27586;51.124;4.182;2023-11-21T14:35:23;11.00;99.90
41904;DHT22;27586;51.124;4.182;2023-11-21T14:37:49;10.90;99.90
41904;DHT22;27586;51.124;4.182;2023-11-21T14:40:15;11.00;99.90
41904;DHT22;27586;51.124;4.182;2023-11-21T14:42:47;11.00;99.90
41904;DHT22;27586;51.124;4.182;2023-11-21T14:45:13;10.90;99.90
41904;DHT22;27586;51.124;4.182;2023-11-21T14:47:42;11.00;99.90
41904;DHT22;27586;51.124;4.182;2023-11-21T14:50:13;11.00;99.90
41904;DHT22;27586;51.124;4.182;2023-11-21T14:52:57;11.00;99.90
41904;DHT22;27586;51.124;4.182;2023-11-21T14:55:25;11.00;99.90
41904;DHT22;27586;51.124;4.182;2023-11-21T14:58:09;11.10;99.90
41904;DHT22;27586;51.124;4.182;2023-11-21T15:00:39;11.00;99.90
41904;DHT22;27586;51.124;4.182;2023-11-21T15:03:11;10.90;99.90
41904;DHT22;27586;51.124;4.182;2023-11-21T15:06:01;10.90;99.90
41904;DHT22;27586;51.124;4.182;2023-11-21T15:09:05;10.90;99.90
41904;DHT22;27586;51.124;4.182;2023-11-21T15:11:33;10.90;99.90
41904;DHT22;27586;51.124;4.182;2023-11-21T15:13:59;10.80;99.90
41904;DHT22;27586;51.124;4.182;2023-11-21T15:16:26;10.90;99.90
41904;DHT22;27586;51.124;4.182;2023-11-21T15:18:52;10.80;99.90
41904;DHT22;27586;51.124;4.182;2023-11-21T15:21:19;10.80;99.90
41904;DHT22;27586;51.124;4.182;2023-11-21T15:23:47;10.90;99.90
41904;DHT22;27586;51.124;4.182;2023-11-21T15:26:12;11.00;99.90
41904;DHT22;27586;51.124;4.182;2023-11-21T15:28:38;10.90;99.90
41904;DHT22;27586;51.124;4.182;2023-11-21T15:31:04;10.90;99.90
41904;DHT22;27586;51.124;4.182;2023-11-21T15:33:30;10.90;99.90
41904;DHT22;27586;51.124;4.182;2023-11-21T15:35:56;10.80;99.90
41904;DHT22;27586;51.124;4.182;2023-11-21T15:38:23;10.90;99.90
41904;DHT22;27586;51.124;4.182;2023-11-21T15:40:49;10.90;99.90
41904;DHT22;27586;51.124;4.182;2023-11-21T15:43:15;10.90;99.90
41904;DHT22;27586;51.124;4.182;2023-11-21T15:45:41;10.90;99.90
41904;DHT22;27586;51.124;4.182;2023-11-21T15:48:07;10.90;99.90
41904;DHT22;27586;51.124;4.182;2023-11-21T15:50:35;10.90;99.90
41904;DHT22;27586;51.124;4.182;2023-11-21T15:53:01;10.90;99.90